KPSP/PSP METAR and TAF weather

Enter ICAO airport designator
Station Type Date Time Source
KPSP METAR 2018/12/19 08:53 UTC NOAA

KPSP 190853Z AUTO 34006KT 10SM CLR 13/04 A3018 RMK AO2 SLP218 T01280044 58005


Station Type Date Time Source
KPSP Decoded METAR 2018/12/19 08:53 UTC NOAA

PALM SPRINGS REGIONAL AIRPORT , CA, United States (KPSP) 33-50N 116-30W 135M
Dec 19, 2018 - 03:53 AM EST / 2018.12.19 0853 UTC
Wind: from the NNW (340 degrees) at 7 MPH (6 KT):0
Visibility: 10 mile(s):0
Sky conditions: clear
Temperature: 55.0 F (12.8 C)
Dew Point: 39.9 F (4.4 C)
Relative Humidity: 56%
Pressure (altimeter): 30.18 in. Hg (1022 hPa)
Pressure tendency: 0.01 inches (0.5 hPa) lower than three hours ago
ob: KPSP 190853Z AUTO 34006KT 10SM CLR 13/04 A3018 RMK AO2 SLP218 T01280044 58005
cycle: 9

Station Type Date Time Source
KPSP TAF 2018/12/19 06:30 UTC NOAA

TAF KPSP 190527Z 1906/2006 VRB05KT P6SM SCT250


Example: see airport list